createdAt,value
2023-05-14T00:03:50.861Z,21.22
2023-05-14T00:08:44.274Z,21.14
2023-05-14T00:13:37.807Z,21.09
2023-05-14T00:18:31.884Z,21.16
2023-05-14T00:23:25.693Z,21.02
2023-05-14T00:28:18.639Z,21.26
2023-05-14T00:33:11.395Z,21.22
2023-05-14T00:38:04.145Z,21.20
2023-05-14T00:42:58.483Z,21.14
2023-05-14T00:47:51.374Z,21.22
2023-05-14T00:52:45.517Z,21.11
2023-05-14T00:57:38.271Z,21.24
2023-05-14T01:02:32.072Z,21.23
2023-05-14T01:08:01.883Z,21.22
2023-05-14T01:13:21.184Z,21.13
2023-05-14T01:18:17.555Z,21.24
2023-05-14T01:23:10.685Z,21.26
2023-05-14T01:28:30.104Z,21.24
2023-05-14T01:33:26.871Z,21.12
2023-05-14T01:38:20.702Z,21.07
2023-05-14T01:43:15.962Z,21.19
2023-05-14T01:48:09.125Z,21.06
2023-05-14T01:53:02.496Z,21.03
2023-05-14T01:57:55.057Z,21.06
2023-05-14T02:02:46.829Z,21.00
2023-05-14T02:07:41.471Z,21.03
2023-05-14T02:12:34.928Z,21.06
2023-05-14T02:17:28.626Z,21.03
2023-05-14T02:22:21.317Z,21.14
2023-05-14T02:27:14.053Z,21.15
2023-05-14T02:32:09.239Z,21.15
2023-05-14T02:37:02.436Z,21.14
2023-05-14T02:41:57.940Z,21.13
2023-05-14T02:46:51.115Z,21.17
2023-05-14T02:51:44.961Z,21.10
2023-05-14T02:56:38.106Z,21.13
2023-05-14T03:01:30.874Z,21.15
2023-05-14T03:06:23.691Z,21.06
2023-05-14T03:11:16.724Z,21.03
2023-05-14T03:16:10.512Z,21.08
2023-05-14T03:21:05.663Z,21.09
2023-05-14T03:25:58.096Z,21.12
2023-05-14T03:30:51.841Z,21.05
2023-05-14T03:35:45.707Z,21.12
2023-05-14T03:40:38.428Z,21.12
2023-05-14T03:45:31.917Z,21.11
2023-05-14T03:50:26.116Z,21.00
2023-05-14T03:55:22.261Z,20.99
2023-05-14T04:00:16.097Z,21.10
2023-05-14T04:05:11.051Z,20.86
2023-05-14T04:10:04.763Z,21.12
2023-05-14T04:15:00.409Z,21.09
2023-05-14T04:19:53.769Z,20.96
2023-05-14T04:24:50.243Z,21.08
2023-05-14T04:29:42.998Z,21.08
2023-05-14T04:34:35.631Z,20.92
2023-05-14T04:39:27.828Z,20.92
2023-05-14T04:44:21.273Z,20.89
2023-05-14T04:49:15.126Z,21.00
2023-05-14T04:54:08.910Z,20.92
2023-05-14T04:59:01.448Z,20.92
2023-05-14T05:03:54.916Z,21.01
2023-05-14T05:08:47.566Z,20.89
2023-05-14T05:13:41.105Z,21.02
2023-05-14T05:18:33.818Z,20.89
2023-05-14T05:23:26.468Z,20.90
2023-05-14T05:28:20.368Z,20.89
2023-05-14T05:33:13.686Z,21.02
2023-05-14T05:38:06.648Z,21.05
2023-05-14T05:43:00.900Z,20.96
2023-05-14T05:47:55.016Z,21.05
2023-05-14T05:52:49.021Z,21.04
2023-05-14T05:57:43.313Z,20.93
2023-05-14T06:02:37.795Z,20.92
2023-05-14T06:07:31.635Z,21.05
2023-05-14T06:12:24.254Z,21.00
2023-05-14T06:17:16.574Z,21.01
2023-05-14T06:22:10.001Z,20.96
2023-05-14T06:27:04.312Z,21.03
2023-05-14T06:32:03.441Z,21.04
2023-05-14T06:36:56.153Z,21.06
2023-05-14T06:41:50.242Z,21.03
2023-05-14T06:46:44.785Z,21.02
2023-05-14T06:51:39.073Z,20.87
2023-05-14T06:56:32.616Z,21.00
2023-05-14T07:01:25.688Z,21.05
2023-05-14T07:06:18.548Z,21.07
2023-05-14T07:11:13.220Z,21.07
2023-05-14T07:16:11.970Z,21.01
2023-05-14T07:21:07.833Z,20.93
2023-05-14T07:26:01.761Z,20.97
2023-05-14T07:30:54.668Z,20.95
2023-05-14T07:35:48.717Z,21.14
2023-05-14T07:40:42.026Z,21.15
2023-05-14T07:45:34.991Z,21.21
2023-05-14T07:50:27.214Z,21.09
2023-05-14T07:55:21.921Z,21.17
2023-05-14T08:00:15.032Z,21.09
2023-05-14T08:05:10.032Z,21.04
2023-05-14T08:10:03.160Z,21.04
2023-05-14T08:14:56.705Z,21.17
2023-05-14T08:19:50.296Z,20.91
2023-05-14T08:24:43.867Z,21.17
2023-05-14T08:29:37.472Z,21.11
2023-05-14T08:34:31.368Z,21.10
2023-05-14T08:39:24.982Z,21.19
2023-05-14T08:44:26.410Z,20.98
2023-05-14T08:49:45.362Z,21.09
2023-05-14T08:54:38.549Z,21.21
2023-05-14T08:59:31.313Z,21.12
2023-05-14T09:04:25.166Z,21.07
2023-05-14T09:09:19.709Z,21.10
2023-05-14T09:14:12.993Z,21.10
2023-05-14T09:19:07.649Z,21.00
2023-05-14T09:24:00.320Z,21.03
2023-05-14T09:28:58.144Z,21.11
2023-05-14T09:33:54.080Z,20.99
2023-05-14T09:38:47.495Z,20.99
2023-05-14T09:43:40.114Z,20.77
2023-05-14T09:48:33.691Z,20.98
2023-05-14T09:53:26.867Z,20.90
2023-05-14T09:58:20.751Z,20.97
2023-05-14T10:03:17.997Z,20.96
2023-05-14T10:08:24.403Z,20.93
2023-05-14T10:13:24.874Z,20.94
2023-05-14T10:18:20.157Z,20.94
2023-05-14T10:23:13.978Z,20.90
2023-05-14T10:28:07.811Z,20.92
2023-05-14T10:33:13.882Z,20.90
2023-05-14T10:38:09.738Z,20.78
2023-05-14T10:43:04.899Z,20.88
2023-05-14T10:47:58.258Z,20.87
2023-05-14T10:52:51.787Z,20.86
2023-05-14T10:57:47.061Z,20.86
2023-05-14T11:02:40.856Z,20.72
2023-05-14T11:07:36.500Z,20.83
2023-05-14T11:12:29.140Z,20.78
2023-05-14T11:17:21.884Z,20.82
2023-05-14T11:22:15.392Z,20.81
2023-05-14T11:27:29.157Z,20.76
2023-05-14T11:32:22.943Z,20.55
2023-05-14T11:37:17.204Z,20.79
2023-05-14T11:42:13.038Z,20.78
2023-05-14T11:47:07.485Z,20.53
2023-05-14T11:52:02.638Z,20.62
2023-05-14T11:56:56.625Z,20.62
2023-05-14T12:01:50.818Z,20.76
2023-05-14T12:06:43.859Z,20.80
2023-05-14T12:11:37.827Z,20.69
2023-05-14T12:16:33.984Z,20.79
2023-05-14T12:21:30.629Z,20.58
2023-05-14T12:26:24.436Z,20.70
2023-05-14T12:31:18.266Z,20.81
2023-05-14T12:36:21.435Z,20.70
2023-05-14T12:41:15.520Z,20.70
2023-05-14T12:46:08.476Z,20.63
2023-05-14T12:51:01.331Z,20.75
2023-05-14T12:55:55.757Z,20.84
2023-05-14T13:00:49.027Z,20.69
2023-05-14T13:05:42.564Z,20.85
2023-05-14T13:10:35.127Z,20.85
2023-05-14T13:15:28.026Z,20.86
2023-05-14T13:20:20.390Z,20.88
2023-05-14T13:25:14.504Z,20.83
2023-05-14T13:30:10.807Z,20.85
2023-05-14T13:35:05.691Z,20.87
2023-05-14T13:39:58.286Z,20.75
2023-05-14T13:44:50.795Z,20.89
2023-05-14T13:49:44.279Z,20.73
2023-05-14T13:54:37.330Z,20.84
2023-05-14T13:59:29.795Z,20.75
2023-05-14T14:04:23.360Z,20.82
2023-05-14T14:09:16.792Z,20.81
2023-05-14T14:14:11.643Z,20.84
2023-05-14T14:19:06.021Z,20.85
2023-05-14T14:23:59.773Z,20.87
2023-05-14T14:28:53.253Z,20.88
2023-05-14T14:33:47.227Z,20.76
2023-05-14T14:38:40.100Z,20.76
2023-05-14T14:43:34.319Z,20.97
2023-05-14T14:48:35.372Z,20.88
2023-05-14T14:53:28.944Z,21.03
2023-05-14T14:58:21.635Z,21.07
2023-05-14T15:03:16.636Z,20.93
2023-05-14T15:08:09.751Z,21.11
2023-05-14T15:13:03.899Z,21.02
2023-05-14T15:17:57.308Z,20.90
2023-05-14T15:22:55.412Z,20.94
2023-05-14T15:27:48.508Z,21.14
2023-05-14T15:32:42.407Z,21.13
2023-05-14T15:37:44.305Z,21.16
2023-05-14T15:42:38.031Z,21.17
2023-05-14T15:47:31.971Z,21.12
2023-05-14T15:52:24.978Z,21.24
2023-05-14T15:57:19.744Z,21.20
2023-05-14T16:02:13.204Z,21.19
2023-05-14T16:07:11.418Z,21.18
2023-05-14T16:12:04.808Z,21.17
2023-05-14T16:16:58.211Z,21.19
2023-05-14T16:21:51.275Z,20.97
2023-05-14T16:26:44.148Z,21.20
2023-05-14T16:31:37.072Z,21.21
2023-05-14T16:36:30.127Z,21.07
2023-05-14T16:41:23.257Z,20.97
2023-05-14T16:46:17.860Z,21.15
2023-05-14T16:51:11.322Z,21.10
2023-05-14T16:56:04.481Z,21.26
2023-05-14T17:00:57.579Z,21.18
2023-05-14T17:05:50.113Z,21.28
2023-05-14T17:10:44.101Z,21.33
2023-05-14T17:15:38.235Z,21.24
2023-05-14T17:20:31.531Z,21.20
2023-05-14T17:25:27.700Z,21.21
2023-05-14T17:30:20.687Z,21.35
2023-05-14T17:35:14.322Z,21.34
2023-05-14T17:40:09.331Z,21.32
2023-05-14T17:45:02.893Z,21.28
2023-05-14T17:49:56.633Z,21.33
2023-05-14T17:54:50.105Z,21.19
2023-05-14T17:59:43.027Z,21.33
2023-05-14T18:04:36.449Z,21.21
2023-05-14T18:09:29.186Z,21.35
2023-05-14T18:14:22.632Z,21.36
2023-05-14T18:19:16.431Z,21.30
2023-05-14T18:24:11.050Z,21.12
2023-05-14T18:29:03.527Z,21.15
2023-05-14T18:33:56.573Z,21.28
2023-05-14T18:38:49.694Z,21.38
2023-05-14T18:43:43.222Z,21.23
2023-05-14T18:48:36.752Z,21.31
2023-05-14T18:53:30.002Z,21.29
2023-05-14T18:58:23.092Z,21.10
2023-05-14T19:03:16.382Z,21.22
2023-05-14T19:08:09.877Z,21.33
2023-05-14T19:13:04.998Z,21.30
2023-05-14T19:17:57.913Z,21.27
2023-05-14T19:22:52.721Z,21.21
2023-05-14T19:27:48.186Z,21.00
2023-05-14T19:32:41.326Z,20.92
2023-05-14T19:37:34.913Z,21.19
2023-05-14T19:42:29.313Z,21.17
2023-05-14T19:47:22.019Z,21.04
2023-05-14T19:52:14.232Z,21.01
2023-05-14T19:57:06.738Z,21.06
2023-05-14T20:01:59.403Z,21.09
2023-05-14T20:06:53.128Z,20.91
2023-05-14T20:11:47.156Z,21.01
2023-05-14T20:16:40.250Z,20.96
2023-05-14T20:21:33.495Z,21.10
2023-05-14T20:26:29.302Z,21.12
2023-05-14T20:31:22.403Z,21.06
2023-05-14T20:36:15.617Z,21.00
2023-05-14T20:41:08.831Z,21.03
2023-05-14T20:46:02.732Z,21.04
2023-05-14T20:50:56.032Z,21.05
2023-05-14T20:55:49.320Z,20.93
2023-05-14T21:00:42.420Z,20.93
2023-05-14T21:05:35.598Z,20.91
2023-05-14T21:10:28.994Z,21.00
2023-05-14T21:15:23.018Z,20.87
2023-05-14T21:20:16.932Z,20.87
2023-05-14T21:25:11.667Z,20.87
2023-05-14T21:30:06.278Z,20.90
2023-05-14T21:34:59.294Z,21.02
2023-05-14T21:39:52.683Z,20.96
2023-05-14T21:44:46.213Z,20.99
2023-05-14T21:49:38.772Z,21.02
2023-05-14T21:54:31.276Z,21.02
2023-05-14T21:59:25.926Z,21.03
2023-05-14T22:04:19.274Z,20.90
2023-05-14T22:09:13.705Z,21.05
2023-05-14T22:14:06.754Z,20.99
2023-05-14T22:19:00.000Z,20.97
2023-05-14T22:23:53.646Z,20.93
2023-05-14T22:28:46.333Z,21.05
2023-05-14T22:33:39.815Z,20.93
2023-05-14T22:38:38.370Z,20.90
2023-05-14T22:43:31.760Z,20.99
2023-05-14T22:48:25.627Z,20.92
2023-05-14T22:53:18.569Z,21.06
2023-05-14T22:58:10.869Z,20.93
2023-05-14T23:03:03.052Z,21.05
2023-05-14T23:07:56.052Z,20.92
2023-05-14T23:12:50.061Z,20.89
2023-05-14T23:17:42.392Z,21.04
2023-05-14T23:22:35.359Z,20.99
2023-05-14T23:27:29.586Z,20.92
2023-05-14T23:32:22.872Z,21.03
2023-05-14T23:37:16.711Z,21.02
2023-05-14T23:42:09.840Z,21.05
2023-05-14T23:47:03.323Z,21.00
2023-05-14T23:51:57.475Z,20.95
2023-05-14T23:56:50.715Z,20.88
